createdAt,value
2018-11-13T00:05:01.200Z,1.50
2018-11-13T00:10:06.904Z,0.90
2018-11-13T00:15:11.660Z,1.17
2018-11-13T00:20:17.140Z,1.23
2018-11-13T00:25:21.704Z,0.97
2018-11-13T00:30:26.154Z,0.50
2018-11-13T00:35:30.627Z,1.40
2018-11-13T00:40:34.824Z,0.77
2018-11-13T00:45:39.180Z,0.97
2018-11-13T00:50:43.414Z,0.80
2018-11-13T00:55:47.573Z,0.53
2018-11-13T01:00:51.860Z,0.80
2018-11-13T01:05:56.049Z,0.83
2018-11-13T01:11:00.272Z,1.60
2018-11-13T01:16:04.561Z,0.57
2018-11-13T01:21:08.895Z,0.60
2018-11-13T01:26:13.388Z,0.97
2018-11-13T01:31:17.670Z,0.67
2018-11-13T01:36:21.951Z,0.90
2018-11-13T01:41:26.225Z,1.27
2018-11-13T01:46:31.169Z,0.60
2018-11-13T01:51:35.543Z,0.60
2018-11-13T01:56:39.825Z,0.67
2018-11-13T02:01:44.031Z,1.00
2018-11-13T02:06:48.211Z,0.77
2018-11-13T02:11:52.597Z,1.00
2018-11-13T02:16:56.992Z,0.80
2018-11-13T02:22:01.291Z,0.70
2018-11-13T02:27:05.967Z,1.40
2018-11-13T02:32:10.181Z,0.60
2018-11-13T02:37:14.518Z,0.97
2018-11-13T02:42:18.776Z,1.70
2018-11-13T02:47:23.409Z,2.50
2018-11-13T02:52:27.684Z,0.93
2018-11-13T02:57:31.867Z,2.33
2018-11-13T03:02:36.125Z,1.10
2018-11-13T03:07:41.090Z,1.07
2018-11-13T03:12:45.333Z,1.30
2018-11-13T03:17:49.581Z,1.53
2018-11-13T03:22:53.841Z,1.60
2018-11-13T03:27:58.037Z,1.83
2018-11-13T03:33:02.361Z,1.63
2018-11-13T03:38:06.733Z,1.30
2018-11-13T03:43:10.998Z,1.30
2018-11-13T03:48:15.276Z,3.00
2018-11-13T03:53:19.601Z,1.50
2018-11-13T03:58:23.830Z,2.70
2018-11-13T04:03:28.169Z,2.13
2018-11-13T04:08:32.406Z,1.20
2018-11-13T04:13:36.692Z,2.10
2018-11-13T04:18:41.057Z,2.90
2018-11-13T04:23:45.350Z,2.33
2018-11-13T04:28:49.636Z,1.27
2018-11-13T04:33:53.784Z,1.93
2018-11-13T04:38:58.093Z,1.53
2018-11-13T04:44:02.369Z,1.27
2018-11-13T04:49:06.608Z,1.37
2018-11-13T04:54:11.230Z,1.60
2018-11-13T04:59:15.540Z,1.57
2018-11-13T05:04:19.873Z,1.13
2018-11-13T05:09:24.180Z,0.90
2018-11-13T05:14:28.465Z,1.67
2018-11-13T05:19:32.883Z,1.17
2018-11-13T05:24:37.513Z,1.00
2018-11-13T05:29:41.907Z,1.57
2018-11-13T05:34:46.195Z,2.03
2018-11-13T05:39:50.686Z,1.23
2018-11-13T05:44:55.874Z,2.20
2018-11-13T05:50:00.108Z,0.90
2018-11-13T05:55:04.481Z,1.10
2018-11-13T06:00:11.870Z,1.10
2018-11-13T06:05:16.188Z,1.03
2018-11-13T06:10:20.431Z,1.00
2018-11-13T06:15:24.696Z,1.77
2018-11-13T06:20:28.967Z,2.40
2018-11-13T06:25:33.469Z,1.93
2018-11-13T06:30:37.666Z,4.03
2018-11-13T06:35:41.915Z,1.50
2018-11-13T06:40:46.131Z,2.33
2018-11-13T06:45:50.434Z,2.37
2018-11-13T06:50:54.828Z,2.43
2018-11-13T06:55:59.702Z,2.43
2018-11-13T07:01:03.937Z,3.80
2018-11-13T07:06:08.210Z,3.57
2018-11-13T07:11:12.443Z,2.90
2018-11-13T07:16:16.786Z,3.27
2018-11-13T07:21:21.079Z,2.47
2018-11-13T07:26:25.563Z,2.73
2018-11-13T07:31:30.081Z,4.73
2018-11-13T07:36:34.346Z,3.80
2018-11-13T07:41:38.716Z,2.87
2018-11-13T07:46:43.109Z,2.57
2018-11-13T07:51:47.345Z,5.47
2018-11-13T07:56:51.652Z,2.60
2018-11-13T08:01:56.076Z,2.77
2018-11-13T08:07:00.478Z,4.37
2018-11-13T08:12:04.859Z,3.33
2018-11-13T08:17:09.066Z,3.27
2018-11-13T08:22:13.454Z,4.30
2018-11-13T08:27:17.744Z,3.93
2018-11-13T08:32:22.112Z,4.07
2018-11-13T08:37:26.446Z,4.80
2018-11-13T08:42:31.006Z,4.60
2018-11-13T08:47:35.386Z,4.17
2018-11-13T08:52:39.858Z,2.97
2018-11-13T08:57:44.323Z,3.93
2018-11-13T09:02:49.212Z,3.33
2018-11-13T09:07:53.515Z,4.10
2018-11-13T09:12:58.067Z,2.73
2018-11-13T09:18:02.749Z,4.83
2018-11-13T09:23:06.913Z,1.93
2018-11-13T09:28:11.471Z,3.17
2018-11-13T09:33:16.052Z,3.43
2018-11-13T09:38:20.316Z,3.10
2018-11-13T09:43:24.681Z,2.77
2018-11-13T09:48:28.959Z,4.13
2018-11-13T09:53:33.372Z,3.60
2018-11-13T09:58:37.801Z,3.27
2018-11-13T10:03:42.600Z,3.10
2018-11-13T10:08:46.780Z,3.43
2018-11-13T10:13:51.235Z,3.57
2018-11-13T10:18:55.523Z,4.47
2018-11-13T10:23:59.832Z,2.63
2018-11-13T10:29:04.210Z,3.97
2018-11-13T10:34:08.530Z,3.27
2018-11-13T10:39:12.973Z,5.13
2018-11-13T10:44:17.346Z,1.53
2018-11-13T10:49:21.646Z,3.57
2018-11-13T10:54:26.283Z,4.77
2018-11-13T10:59:30.571Z,4.33
2018-11-13T11:04:40.089Z,3.30
2018-11-13T11:09:44.583Z,1.80
2018-11-13T11:14:48.861Z,3.10
2018-11-13T11:19:53.080Z,3.07
2018-11-13T11:24:57.546Z,2.77
2018-11-13T11:30:02.065Z,3.23
2018-11-13T11:35:07.190Z,2.40
2018-11-13T11:40:12.337Z,3.10
2018-11-13T11:45:16.597Z,2.40
2018-11-13T11:50:20.987Z,3.73
2018-11-13T11:55:25.280Z,1.60
2018-11-13T12:00:30.247Z,2.00
2018-11-13T12:05:34.639Z,2.10
2018-11-13T12:10:39.028Z,3.33
2018-11-13T12:15:43.353Z,2.37
2018-11-13T12:20:47.790Z,4.47
2018-11-13T12:25:52.201Z,2.70
2018-11-13T12:30:56.621Z,1.60
2018-11-13T12:36:00.921Z,3.67
2018-11-13T12:41:05.333Z,3.80
2018-11-13T12:46:09.629Z,4.00
2018-11-13T12:51:19.134Z,3.43
2018-11-13T12:56:23.482Z,3.70
2018-11-13T13:01:27.946Z,2.40
2018-11-13T13:06:32.221Z,1.20
2018-11-13T13:11:36.840Z,4.50
2018-11-13T13:16:41.357Z,2.90
2018-11-13T13:21:45.820Z,1.13
2018-11-13T13:26:50.183Z,3.23
2018-11-13T13:31:54.864Z,1.93
2018-11-13T13:36:59.065Z,2.57
2018-11-13T13:42:03.462Z,2.10
2018-11-13T13:47:07.793Z,3.03
2018-11-13T13:52:12.021Z,1.60
2018-11-13T13:57:16.406Z,2.77
2018-11-13T14:02:22.663Z,1.47
2018-11-13T14:07:27.896Z,1.93
2018-11-13T14:12:32.218Z,3.30
2018-11-13T14:17:36.671Z,1.60
2018-11-13T14:22:41.092Z,3.80
2018-11-13T14:27:45.944Z,1.47
2018-11-13T14:32:50.912Z,2.27
2018-11-13T14:38:01.912Z,3.03
2018-11-13T14:43:06.552Z,2.27
2018-11-13T14:48:11.591Z,2.73
2018-11-13T14:53:15.923Z,2.27
2018-11-13T14:58:20.250Z,3.10
2018-11-13T15:03:24.497Z,2.47
2018-11-13T15:08:29.733Z,1.40
2018-11-13T15:13:34.038Z,2.37
2018-11-13T15:18:38.314Z,3.17
2018-11-13T15:23:42.516Z,2.07
2018-11-13T15:28:46.798Z,2.93
2018-11-13T15:33:53.881Z,3.60
2018-11-13T15:38:58.352Z,2.97
2018-11-13T15:44:02.709Z,3.47
2018-11-13T15:49:06.954Z,3.07
2018-11-13T15:54:11.205Z,3.57
2018-11-13T15:59:15.582Z,1.30
2018-11-13T16:04:19.914Z,3.20
2018-11-13T16:09:24.106Z,4.37
2018-11-13T16:14:28.346Z,2.37
2018-11-13T16:19:32.686Z,1.93
2018-11-13T16:24:37.120Z,3.03
2018-11-13T16:29:41.557Z,2.03
2018-11-13T16:34:46.046Z,4.20
2018-11-13T16:39:50.399Z,4.23
2018-11-13T16:44:54.755Z,4.03
2018-11-13T16:49:59.063Z,3.83
2018-11-13T16:55:04.135Z,3.40
2018-11-13T17:00:10.431Z,3.17
2018-11-13T17:05:16.818Z,2.93
2018-11-13T17:10:22.657Z,2.53
2018-11-13T17:15:28.212Z,3.77
2018-11-13T17:20:32.444Z,4.43
2018-11-13T17:25:37.998Z,3.23
2018-11-13T17:30:42.287Z,3.60
2018-11-13T17:35:46.664Z,5.23
2018-11-13T17:40:50.942Z,2.53
2018-11-13T17:45:55.140Z,4.67
2018-11-13T17:51:00.455Z,5.57
2018-11-13T17:56:07.547Z,5.10
2018-11-13T18:01:12.508Z,4.00
2018-11-13T18:06:17.112Z,5.60
2018-11-13T18:11:21.551Z,4.83
2018-11-13T18:16:25.960Z,4.20
2018-11-13T18:21:30.372Z,3.60
2018-11-13T18:26:34.812Z,3.23
2018-11-13T18:31:39.060Z,4.20
2018-11-13T18:36:43.575Z,3.37
2018-11-13T18:41:49.651Z,3.87
2018-11-13T18:46:54.879Z,2.83
2018-11-13T18:52:00.144Z,4.40
2018-11-13T18:57:05.190Z,4.07
2018-11-13T19:02:09.984Z,2.87
2018-11-13T19:07:14.275Z,4.20
2018-11-13T19:12:19.210Z,7.30
2018-11-13T19:17:24.379Z,3.87
2018-11-13T19:22:35.629Z,5.33
2018-11-13T19:27:41.111Z,5.57
2018-11-13T19:32:47.629Z,7.27
2018-11-13T19:37:54.009Z,4.03
2018-11-13T19:43:01.435Z,5.47
2018-11-13T19:48:08.837Z,4.30
2018-11-13T19:53:20.510Z,5.03
2018-11-13T19:58:26.676Z,2.97
2018-11-13T20:03:33.875Z,2.60
2018-11-13T20:08:43.472Z,2.77
2018-11-13T20:13:48.873Z,3.77
2018-11-13T20:18:53.949Z,3.83
2018-11-13T20:24:00.785Z,4.00
2018-11-13T20:29:05.974Z,5.47
2018-11-13T20:34:10.688Z,6.17
2018-11-13T20:39:15.073Z,6.13
2018-11-13T20:44:20.671Z,3.63
2018-11-13T20:49:25.182Z,4.70
2018-11-13T20:54:29.949Z,5.53
2018-11-13T20:59:34.201Z,6.83
2018-11-13T21:04:39.033Z,4.97
2018-11-13T21:09:43.369Z,3.47
2018-11-13T21:14:47.929Z,4.67
2018-11-13T21:19:52.387Z,3.17
2018-11-13T21:24:56.677Z,3.27
2018-11-13T21:30:00.980Z,5.23
2018-11-13T21:35:05.392Z,4.03
2018-11-13T21:40:11.570Z,2.73
2018-11-13T21:45:16.988Z,4.40
2018-11-13T21:50:24.298Z,3.87
2018-11-13T21:55:29.457Z,2.43
2018-11-13T22:00:34.716Z,2.73
2018-11-13T22:05:39.613Z,4.47
2018-11-13T22:10:43.930Z,3.17
2018-11-13T22:15:48.245Z,3.60
2018-11-13T22:20:52.588Z,2.07
2018-11-13T22:25:57.006Z,2.10
2018-11-13T22:31:01.277Z,2.60
2018-11-13T22:36:06.449Z,3.17
2018-11-13T22:41:11.016Z,2.10
2018-11-13T22:46:15.281Z,5.00
2018-11-13T22:51:19.538Z,4.60
2018-11-13T22:56:23.968Z,3.87
2018-11-13T23:01:28.277Z,4.50
2018-11-13T23:06:32.590Z,3.00
2018-11-13T23:11:36.975Z,3.33
2018-11-13T23:16:41.228Z,3.73
2018-11-13T23:21:45.442Z,4.00
2018-11-13T23:26:49.674Z,3.57
2018-11-13T23:31:53.934Z,2.47
2018-11-13T23:36:58.290Z,3.17
2018-11-13T23:42:02.547Z,3.53
2018-11-13T23:47:06.775Z,3.40
2018-11-13T23:52:11.467Z,2.57
2018-11-13T23:57:15.811Z,1.73
